Buoy 51940

sailwx.info

Track history (hours):
 
Tides and Currents Weather Stations Pressure Air Temp Water Temp Dewpoint Dewpoint Depression Visibility Wind Speed Wind Dir Waves Ship Positions

Drifting buoy 51940

Last reported at 2014-Sep-20 18:56 UTC. Time now 2014-Sep-20 22:08 UTC.
Position N 33°58' E 173°21'.

Water temperature 26.2 ° C

Date/timePositionNaut miles runAvg speedWind from/ knotsBaromVisibWave heightAir tempDewpointWater temp
2014-Sep-20 18:56N 33°58' E 173°21'3 7.0 26.2
2014-Sep-20 18:34N 33°58' E 173°18'0 0.0
2014-Sep-20 17:18N 33°58' E 173°18'4 1.8 26.2
2014-Sep-20 14:50N 33°58' E 173°13'5 1.1 26.2
2014-Sep-20 10:31N 33°57' E 173°07'188.9 26.2
2014-Sep-20 10:30N 33°56' E 173°06'0 0.0 26.2
2014-Sep-20 08:50N 33°56' E 173°06'012.5 26.1
2014-Sep-20 08:48N 33°56' E 173°05'0 0.0 26.2
2014-Sep-20 07:45N 33°56' E 173°05'1 0.6 26.2
2014-Sep-20 06:04N 33°56' E 173°04'4 1.1 26.2
2014-Sep-20 02:48N 33°58' E 173°00'2 5.0 26.2
2014-Sep-20 02:20N 33°60' E 172°58'0 0.0
2014-Sep-20 00:41N 33°60' E 172°58'224.3 26.0
2014-Sep-20 00:36N 34°00' E 172°56'3 1.9 26.0
2014-Sep-19 23:14N 34°01' E 172°53'0 0.0 26.0
2014-Sep-19 22:27N 34°01' E 172°53'6 2.0 25.9
2014-Sep-19 19:28N 34°01' E 172°46'0 0.0 25.8
2014-Sep-19 17:50N 34°01' E 172°46'5 3.2 25.8
2014-Sep-19 16:24N 33°60' E 172°40'0 0.0 25.8
2014-Sep-19 14:58N 33°60' E 172°40'320.3
2014-Sep-19 14:50N 33°58' E 172°38'0 0.0 25.9
2014-Sep-19 13:16N 33°58' E 172°38'0 0.1 25.9
2014-Sep-19 10:04N 33°58' E 172°38'0 0.0
2014-Sep-19 09:12N 33°58' E 172°38'112.1 25.9
2014-Sep-19 09:08N 33°59' E 172°37'4 0.8 25.9
2014-Sep-19 04:03N 34°02' E 172°34'5 1.4 26.2
2014-Sep-19 00:48N 34°04' E 172°29'0 0.0 26.1
2014-Sep-18 22:47N 34°04' E 172°29'6 1.5 26.0
2014-Sep-18 18:58N 34°04' E 172°22'3 8.0 25.6
2014-Sep-18 18:32N 34°04' E 172°18'0 0.0 25.6
2014-Sep-18 17:25N 34°04' E 172°18'0 0.1 25.8
2014-Sep-18 15:12N 34°04' E 172°18'1 0.4 25.9
2014-Sep-18 13:28N 34°03' E 172°17'0 0.1 25.9
2014-Sep-18 09:35N 34°03' E 172°18'1 1.4 26.1
2014-Sep-18 08:41N 34°05' E 172°18'0 0.0 26.1
2014-Sep-18 07:52N 34°05' E 172°18'7147.0 26.1
2014-Sep-18 07:49N 34°10' E 172°13'0 0.0 26.1
2014-Sep-18 06:06N 34°10' E 172°13'0 0.0 26.2
2014-Sep-18 04:28N 34°10' E 172°13'0 0.0 26.3
2014-Sep-18 03:13N 34°10' E 172°13'0 0.1 26.5
2014-Sep-18 02:38N 34°10' E 172°13'0 0.0 26.5
2014-Sep-18 01:03N 34°10' E 172°13'2 1.6 26.3
2014-Sep-17 23:52N 34°11' E 172°11'0 0.0 26.1
2014-Sep-17 23:06N 34°11' E 172°11'5 1.2 26.0
2014-Sep-17 18:55N 34°13' E 172°05'119.1 25.8
2014-Sep-17 18:51N 34°14' E 172°04'176.6
2014-Sep-17 18:50N 34°13' E 172°05'1 1.0 25.8
2014-Sep-17 17:36N 34°14' E 172°04'3 7.2 25.8
2014-Sep-17 17:15N 34°14' E 172°00'2102.2 25.8
2014-Sep-17 17:14N 34°14' E 172°03'2 1.0 25.8
2014-Sep-17 15:20N 34°14' E 172°00'3 1.6 25.8
2014-Sep-17 13:40N 34°14' E 171°57'0 0.0 25.9
2014-Sep-17 09:57N 34°14' E 171°57'1 0.8 25.9
2014-Sep-17 09:06N 34°14' E 171°56'1 1.4 25.9
2014-Sep-17 08:09N 34°15' E 171°55'0 0.0 25.9
2014-Sep-17 06:37N 34°15' E 171°55'218.7 26.0
2014-Sep-17 06:31N 34°16' E 171°53'2 3.3 26.0
2014-Sep-17 05:57N 34°15' E 171°55'2 2.3 26.0
2014-Sep-17 05:08N 34°16' E 171°53'0 0.0 26.0
2014-Sep-17 04:54N 34°16' E 171°53'1 1.0 26.0
2014-Sep-17 03:25N 34°16' E 171°51'1 1.2 26.1
2014-Sep-17 02:57N 34°17' E 171°51'0 3.0 26.1
2014-Sep-17 02:51N 34°17' E 171°50'2 1.1 26.1
2014-Sep-17 01:16N 34°16' E 171°48'0 3.1 26.0
2014-Sep-17 01:12N 34°17' E 171°48'2 1.0 26.0
2014-Sep-16 23:29N 34°16' E 171°46'4 2.5 25.9
2014-Sep-16 21:48N 34°16' E 171°41'0 0.0 25.7
2014-Sep-16 20:55N 34°16' E 171°41'0 0.0 25.7
2014-Sep-16 19:24N 34°16' E 171°41'0 0.4 25.7
2014-Sep-16 19:14N 34°16' E 171°41'2 1.7 25.7
2014-Sep-16 17:48N 34°15' E 171°39'1 9.7 25.7
2014-Sep-16 17:42N 34°15' E 171°40'1 6.4 25.7
2014-Sep-16 17:33N 34°15' E 171°39'0 0.0 25.7
2014-Sep-16 16:03N 34°15' E 171°39'0 0.9 25.6
2014-Sep-16 15:33N 34°14' E 171°39'134.4
2014-Sep-16 15:32N 34°14' E 171°38'0 0.0 25.6
2014-Sep-16 13:51N 34°14' E 171°38'1 0.2 25.6
2014-Sep-16 10:14N 34°13' E 171°38'0 0.4 25.5
2014-Sep-16 09:27N 34°13' E 171°37'0 2.2 25.5
2014-Sep-16 09:20N 34°13' E 171°37'1 1.7 25.5
2014-Sep-16 08:31N 34°14' E 171°36'0 0.0 25.5
2014-Sep-16 08:08N 34°14' E 171°36'2 0.7 25.5
2014-Sep-16 05:16N 34°15' E 171°33'0 0.0 25.6
2014-Sep-16 03:39N 34°15' E 171°33'0 1.2 25.7
2014-Sep-16 03:36N 34°15' E 171°33'2 3.6 25.7
2014-Sep-16 03:03N 34°15' E 171°31'0 0.2 25.7
2014-Sep-16 01:20N 34°15' E 171°31'3 1.1 25.6
2014-Sep-15 22:11N 34°13' E 171°28'4 1.1 25.1
2014-Sep-15 18:13N 34°10' E 171°24'1 3.2 24.9
2014-Sep-15 17:54N 34°10' E 171°25'117.2 24.9
2014-Sep-15 17:50N 34°09' E 171°25'0 0.0
2014-Sep-15 16:36N 34°09' E 171°25'0 0.0 24.9
2014-Sep-15 16:15N 34°09' E 171°25'0 1.0 24.8
2014-Sep-15 15:44N 34°09' E 171°25'1 0.5 24.8
2014-Sep-15 14:03N 34°08' E 171°25'1 0.4 24.9
2014-Sep-15 10:38N 34°08' E 171°26'0 0.4 24.9
2014-Sep-15 09:46N 34°08' E 171°27'1 0.6 24.9
2014-Sep-15 08:55N 34°08' E 171°26'220.7 24.9
2014-Sep-15 08:50N 34°08' E 171°24'1 0.2 25.0
2014-Sep-15 05:25N 34°08' E 171°23'0 0.0 25.2
2014-Sep-15 04:06N 34°08' E 171°23'0 2.3 25.2
2014-Sep-15 04:00N 34°08' E 171°23'210.0 25.2
2014-Sep-15 03:47N 34°08' E 171°21'0 0.1 25.2
2014-Sep-15 01:33N 34°08' E 171°21'3 1.4 25.1
2014-Sep-14 23:14N 34°05' E 171°19'3 2.1 25.1
2014-Sep-14 21:39N 34°01' E 171°19'0 0.0 25.0
2014-Sep-14 18:45N 34°01' E 171°19'1 5.2 25.1
2014-Sep-14 18:31N 34°00' E 171°20'0 0.0 25.1
2014-Sep-14 18:09N 34°00' E 171°20'0 0.0 25.1
2014-Sep-14 17:05N 34°00' E 171°20'0 0.6 25.2
2014-Sep-14 16:28N 34°00' E 171°20'0 0.6 25.2
2014-Sep-14 15:55N 34°00' E 171°21'0 0.2 25.2
2014-Sep-14 14:15N 34°00' E 171°21'1 0.2 25.3
2014-Sep-14 10:55N 34°01' E 171°22'0 0.2 25.4
2014-Sep-14 10:09N 34°01' E 171°22'0 0.3 25.4
2014-Sep-14 09:18N 34°01' E 171°21'1 5.8 25.5
2014-Sep-14 09:12N 34°01' E 171°22'2 0.7 25.5
2014-Sep-14 06:05N 34°00' E 171°19'0 0.0 25.8
2014-Sep-14 05:38N 34°00' E 171°19'1 0.6 25.9
2014-Sep-14 04:31N 33°60' E 171°20'0 0.7 26.0
2014-Sep-14 04:03N 33°60' E 171°19'220.2 26.0
2014-Sep-14 03:58N 33°58' E 171°18'0 0.0 26.0
2014-Sep-14 01:45N 33°58' E 171°18'238.4 26.1
2014-Sep-14 01:42N 33°56' E 171°18'0 0.1 26.1
2014-Sep-13 22:50N 33°56' E 171°18'2 0.5 25.8
2014-Sep-13 19:18N 33°55' E 171°18'1 0.4 25.7
2014-Sep-13 17:32N 33°54' E 171°19'1 0.9 25.7
2014-Sep-13 16:38N 33°54' E 171°20'1 8.0 25.7
2014-Sep-13 16:32N 33°54' E 171°21'0 0.0 25.7
2014-Sep-13 14:26N 33°54' E 171°21'3 0.5 25.7
2014-Sep-13 08:49N 33°55' E 171°17'1 1.7 25.8
2014-Sep-13 08:05N 33°56' E 171°18'1 0.8 25.8
2014-Sep-13 06:25N 33°55' E 171°17'1 0.6 25.8
2014-Sep-13 04:52N 33°54' E 171°17'2 3.1 25.8
2014-Sep-13 04:08N 33°52' E 171°16'0 0.0 25.8
2014-Sep-13 01:57N 33°52' E 171°16'117.0 25.8
2014-Sep-13 01:52N 33°51' E 171°17'0 0.0 25.8
2014-Sep-12 23:55N 33°51' E 171°17'0 0.1 25.7
2014-Sep-12 23:11N 33°51' E 171°17'2 0.5 25.7
2014-Sep-12 19:45N 33°49' E 171°18'0 0.1 25.7
2014-Sep-12 18:31N 33°49' E 171°18'0 0.0 25.7
2014-Sep-12 18:09N 33°49' E 171°18'0 0.0 25.7
2014-Sep-12 16:50N 33°49' E 171°18'2 0.3 25.7
2014-Sep-12 09:58N 33°51' E 171°18'2 1.2 25.8
2014-Sep-12 08:17N 33°51' E 171°16'225.7 25.8
2014-Sep-12 08:13N 33°50' E 171°14'2 1.4 25.8
2014-Sep-12 06:57N 33°51' E 171°16'2 1.8 25.8
2014-Sep-12 06:01N 33°50' E 171°14'0 0.0 25.8
2014-Sep-12 05:18N 33°50' E 171°14'1 0.6 25.9
2014-Sep-12 04:20N 33°49' E 171°15'396.7 25.9
2014-Sep-12 04:18N 33°48' E 171°18'0 0.0 25.9
2014-Sep-12 02:04N 33°48' E 171°18'2 0.2 25.9
2014-Sep-11 16:59N 33°49' E 171°18'6 2.7 25.9
2014-Sep-11 14:39N 33°53' E 171°13'0 0.0 25.9
2014-Sep-11 10:20N 33°53' E 171°13'2 2.5 25.9
2014-Sep-11 09:28N 33°53' E 171°10'1 1.5 25.9
2014-Sep-11 08:35N 33°52' E 171°09'6 1.2 25.9
2014-Sep-11 03:58N 33°50' E 171°02'0 0.0 26.0
2014-Sep-11 02:20N 33°50' E 171°02'4 1.0 26.0
2014-Sep-10 22:12N 33°48' E 170°58'1 0.8 25.9
2014-Sep-10 21:19N 33°48' E 170°57'1 0.4 25.9
2014-Sep-10 19:14N 33°48' E 170°56'   25.9
Track history (hours):
 
Tides and Currents Weather Stations Pressure Air Temp Water Temp Dewpoint Dewpoint Depression Visibility Wind Speed Wind Dir Waves Ship Positions

Drifting buoy 51940

Last reported at 2014-Sep-20 18:56 UTC. Time now 2014-Sep-20 22:08 UTC.
Position N 33°58' E 173°21'.

Water temperature 26.2 ° C

Date/timePositionNaut miles runAvg speedWind from/ knotsBaromVisibWave heightAir tempDewpointWater temp
2014-Sep-20 18:56N 33°58' E 173°21'3 7.0 26.2
2014-Sep-20 18:34N 33°58' E 173°18'0 0.0
2014-Sep-20 17:18N 33°58' E 173°18'4 1.8 26.2
2014-Sep-20 14:50N 33°58' E 173°13'5 1.1 26.2
2014-Sep-20 10:31N 33°57' E 173°07'188.9 26.2
2014-Sep-20 10:30N 33°56' E 173°06'0 0.0 26.2
2014-Sep-20 08:50N 33°56' E 173°06'012.5 26.1
2014-Sep-20 08:48N 33°56' E 173°05'0 0.0 26.2
2014-Sep-20 07:45N 33°56' E 173°05'1 0.6 26.2
2014-Sep-20 06:04N 33°56' E 173°04'4 1.1 26.2
2014-Sep-20 02:48N 33°58' E 173°00'2 5.0 26.2
2014-Sep-20 02:20N 33°60' E 172°58'0 0.0
2014-Sep-20 00:41N 33°60' E 172°58'224.3 26.0
2014-Sep-20 00:36N 34°00' E 172°56'3 1.9 26.0
2014-Sep-19 23:14N 34°01' E 172°53'0 0.0 26.0
2014-Sep-19 22:27N 34°01' E 172°53'6 2.0 25.9
2014-Sep-19 19:28N 34°01' E 172°46'0 0.0 25.8
2014-Sep-19 17:50N 34°01' E 172°46'5 3.2 25.8
2014-Sep-19 16:24N 33°60' E 172°40'0 0.0 25.8
2014-Sep-19 14:58N 33°60' E 172°40'320.3
2014-Sep-19 14:50N 33°58' E 172°38'0 0.0 25.9
2014-Sep-19 13:16N 33°58' E 172°38'0 0.1 25.9
2014-Sep-19 10:04N 33°58' E 172°38'0 0.0
2014-Sep-19 09:12N 33°58' E 172°38'112.1 25.9
2014-Sep-19 09:08N 33°59' E 172°37'4 0.8 25.9
2014-Sep-19 04:03N 34°02' E 172°34'5 1.4 26.2
2014-Sep-19 00:48N 34°04' E 172°29'0 0.0 26.1
2014-Sep-18 22:47N 34°04' E 172°29'6 1.5 26.0
2014-Sep-18 18:58N 34°04' E 172°22'3 8.0 25.6
2014-Sep-18 18:32N 34°04' E 172°18'0 0.0 25.6
2014-Sep-18 17:25N 34°04' E 172°18'0 0.1 25.8
2014-Sep-18 15:12N 34°04' E 172°18'1 0.4 25.9
2014-Sep-18 13:28N 34°03' E 172°17'0 0.1 25.9
2014-Sep-18 09:35N 34°03' E 172°18'1 1.4 26.1
2014-Sep-18 08:41N 34°05' E 172°18'0 0.0 26.1
2014-Sep-18 07:52N 34°05' E 172°18'7147.0 26.1
2014-Sep-18 07:49N 34°10' E 172°13'0 0.0 26.1
2014-Sep-18 06:06N 34°10' E 172°13'0 0.0 26.2
2014-Sep-18 04:28N 34°10' E 172°13'0 0.0 26.3
2014-Sep-18 03:13N 34°10' E 172°13'0 0.1 26.5
2014-Sep-18 02:38N 34°10' E 172°13'0 0.0 26.5
2014-Sep-18 01:03N 34°10' E 172°13'2 1.6 26.3
2014-Sep-17 23:52N 34°11' E 172°11'0 0.0 26.1
2014-Sep-17 23:06N 34°11' E 172°11'5 1.2 26.0
2014-Sep-17 18:55N 34°13' E 172°05'119.1 25.8
2014-Sep-17 18:51N 34°14' E 172°04'176.6
2014-Sep-17 18:50N 34°13' E 172°05'1 1.0 25.8
2014-Sep-17 17:36N 34°14' E 172°04'3 7.2 25.8
2014-Sep-17 17:15N 34°14' E 172°00'2102.2 25.8
2014-Sep-17 17:14N 34°14' E 172°03'2 1.0 25.8
2014-Sep-17 15:20N 34°14' E 172°00'3 1.6 25.8
2014-Sep-17 13:40N 34°14' E 171°57'0 0.0 25.9
2014-Sep-17 09:57N 34°14' E 171°57'1 0.8 25.9
2014-Sep-17 09:06N 34°14' E 171°56'1 1.4 25.9
2014-Sep-17 08:09N 34°15' E 171°55'0 0.0 25.9
2014-Sep-17 06:37N 34°15' E 171°55'218.7 26.0
2014-Sep-17 06:31N 34°16' E 171°53'2 3.3 26.0
2014-Sep-17 05:57N 34°15' E 171°55'2 2.3 26.0
2014-Sep-17 05:08N 34°16' E 171°53'0 0.0 26.0
2014-Sep-17 04:54N 34°16' E 171°53'1 1.0 26.0
2014-Sep-17 03:25N 34°16' E 171°51'1 1.2 26.1
2014-Sep-17 02:57N 34°17' E 171°51'0 3.0 26.1
2014-Sep-17 02:51N 34°17' E 171°50'2 1.1 26.1
2014-Sep-17 01:16N 34°16' E 171°48'0 3.1 26.0
2014-Sep-17 01:12N 34°17' E 171°48'2 1.0 26.0
2014-Sep-16 23:29N 34°16' E 171°46'4 2.5 25.9
2014-Sep-16 21:48N 34°16' E 171°41'0 0.0 25.7
2014-Sep-16 20:55N 34°16' E 171°41'0 0.0 25.7
2014-Sep-16 19:24N 34°16' E 171°41'0 0.4 25.7
2014-Sep-16 19:14N 34°16' E 171°41'2 1.7 25.7
2014-Sep-16 17:48N 34°15' E 171°39'1 9.7 25.7
2014-Sep-16 17:42N 34°15' E 171°40'1 6.4 25.7
2014-Sep-16 17:33N 34°15' E 171°39'0 0.0 25.7
2014-Sep-16 16:03N 34°15' E 171°39'0 0.9 25.6
2014-Sep-16 15:33N 34°14' E 171°39'134.4
2014-Sep-16 15:32N 34°14' E 171°38'0 0.0 25.6
2014-Sep-16 13:51N 34°14' E 171°38'1 0.2 25.6
2014-Sep-16 10:14N 34°13' E 171°38'0 0.4 25.5
2014-Sep-16 09:27N 34°13' E 171°37'0 2.2 25.5
2014-Sep-16 09:20N 34°13' E 171°37'1 1.7 25.5
2014-Sep-16 08:31N 34°14' E 171°36'0 0.0 25.5
2014-Sep-16 08:08N 34°14' E 171°36'2 0.7 25.5
2014-Sep-16 05:16N 34°15' E 171°33'0 0.0 25.6
2014-Sep-16 03:39N 34°15' E 171°33'0 1.2 25.7
2014-Sep-16 03:36N 34°15' E 171°33'2 3.6 25.7
2014-Sep-16 03:03N 34°15' E 171°31'0 0.2 25.7
2014-Sep-16 01:20N 34°15' E 171°31'3 1.1 25.6
2014-Sep-15 22:11N 34°13' E 171°28'4 1.1 25.1
2014-Sep-15 18:13N 34°10' E 171°24'1 3.2 24.9
2014-Sep-15 17:54N 34°10' E 171°25'117.2 24.9
2014-Sep-15 17:50N 34°09' E 171°25'0 0.0
2014-Sep-15 16:36N 34°09' E 171°25'0 0.0 24.9
2014-Sep-15 16:15N 34°09' E 171°25'0 1.0 24.8
2014-Sep-15 15:44N 34°09' E 171°25'1 0.5 24.8
2014-Sep-15 14:03N 34°08' E 171°25'1 0.4 24.9
2014-Sep-15 10:38N 34°08' E 171°26'0 0.4 24.9
2014-Sep-15 09:46N 34°08' E 171°27'1 0.6 24.9
2014-Sep-15 08:55N 34°08' E 171°26'220.7 24.9
2014-Sep-15 08:50N 34°08' E 171°24'1 0.2 25.0
2014-Sep-15 05:25N 34°08' E 171°23'0 0.0 25.2
2014-Sep-15 04:06N 34°08' E 171°23'0 2.3 25.2
2014-Sep-15 04:00N 34°08' E 171°23'210.0 25.2
2014-Sep-15 03:47N 34°08' E 171°21'0 0.1 25.2
2014-Sep-15 01:33N 34°08' E 171°21'3 1.4 25.1
2014-Sep-14 23:14N 34°05' E 171°19'3 2.1 25.1
2014-Sep-14 21:39N 34°01' E 171°19'0 0.0 25.0
2014-Sep-14 18:45N 34°01' E 171°19'1 5.2 25.1
2014-Sep-14 18:31N 34°00' E 171°20'0 0.0 25.1
2014-Sep-14 18:09N 34°00' E 171°20'0 0.0 25.1
2014-Sep-14 17:05N 34°00' E 171°20'0 0.6 25.2
2014-Sep-14 16:28N 34°00' E 171°20'0 0.6 25.2
2014-Sep-14 15:55N 34°00' E 171°21'0 0.2 25.2
2014-Sep-14 14:15N 34°00' E 171°21'1 0.2 25.3
2014-Sep-14 10:55N 34°01' E 171°22'0 0.2 25.4
2014-Sep-14 10:09N 34°01' E 171°22'0 0.3 25.4
2014-Sep-14 09:18N 34°01' E 171°21'1 5.8 25.5
2014-Sep-14 09:12N 34°01' E 171°22'2 0.7 25.5
2014-Sep-14 06:05N 34°00' E 171°19'0 0.0 25.8
2014-Sep-14 05:38N 34°00' E 171°19'1 0.6 25.9
2014-Sep-14 04:31N 33°60' E 171°20'0 0.7 26.0
2014-Sep-14 04:03N 33°60' E 171°19'220.2 26.0
2014-Sep-14 03:58N 33°58' E 171°18'0 0.0 26.0
2014-Sep-14 01:45N 33°58' E 171°18'238.4 26.1
2014-Sep-14 01:42N 33°56' E 171°18'0 0.1 26.1
2014-Sep-13 22:50N 33°56' E 171°18'2 0.5 25.8
2014-Sep-13 19:18N 33°55' E 171°18'1 0.4 25.7
2014-Sep-13 17:32N 33°54' E 171°19'1 0.9 25.7
2014-Sep-13 16:38N 33°54' E 171°20'1 8.0 25.7
2014-Sep-13 16:32N 33°54' E 171°21'0 0.0 25.7
2014-Sep-13 14:26N 33°54' E 171°21'3 0.5 25.7
2014-Sep-13 08:49N 33°55' E 171°17'1 1.7 25.8
2014-Sep-13 08:05N 33°56' E 171°18'1 0.8 25.8
2014-Sep-13 06:25N 33°55' E 171°17'1 0.6 25.8
2014-Sep-13 04:52N 33°54' E 171°17'2 3.1 25.8
2014-Sep-13 04:08N 33°52' E 171°16'0 0.0 25.8
2014-Sep-13 01:57N 33°52' E 171°16'117.0 25.8
2014-Sep-13 01:52N 33°51' E 171°17'0 0.0 25.8
2014-Sep-12 23:55N 33°51' E 171°17'0 0.1 25.7
2014-Sep-12 23:11N 33°51' E 171°17'2 0.5 25.7
2014-Sep-12 19:45N 33°49' E 171°18'0 0.1 25.7
2014-Sep-12 18:31N 33°49' E 171°18'0 0.0 25.7
2014-Sep-12 18:09N 33°49' E 171°18'0 0.0 25.7
2014-Sep-12 16:50N 33°49' E 171°18'2 0.3 25.7
2014-Sep-12 09:58N 33°51' E 171°18'2 1.2 25.8
2014-Sep-12 08:17N 33°51' E 171°16'225.7 25.8
2014-Sep-12 08:13N 33°50' E 171°14'2 1.4 25.8
2014-Sep-12 06:57N 33°51' E 171°16'2 1.8 25.8
2014-Sep-12 06:01N 33°50' E 171°14'0 0.0 25.8
2014-Sep-12 05:18N 33°50' E 171°14'1 0.6 25.9
2014-Sep-12 04:20N 33°49' E 171°15'396.7 25.9
2014-Sep-12 04:18N 33°48' E 171°18'0 0.0 25.9
2014-Sep-12 02:04N 33°48' E 171°18'2 0.2 25.9
2014-Sep-11 16:59N 33°49' E 171°18'6 2.7 25.9
2014-Sep-11 14:39N 33°53' E 171°13'0 0.0 25.9
2014-Sep-11 10:20N 33°53' E 171°13'2 2.5 25.9
2014-Sep-11 09:28N 33°53' E 171°10'1 1.5 25.9
2014-Sep-11 08:35N 33°52' E 171°09'6 1.2 25.9
2014-Sep-11 03:58N 33°50' E 171°02'0 0.0 26.0
2014-Sep-11 02:20N 33°50' E 171°02'4 1.0 26.0
2014-Sep-10 22:12N 33°48' E 170°58'1 0.8 25.9
2014-Sep-10 21:19N 33°48' E 170°57'1 0.4 25.9
2014-Sep-10 19:14N 33°48' E 170°56'   25.9

Dump ship's entire track history